HAZ5121 ZSPD-ZSAM
Flight info
| Callsign | HAZ5121 |
|---|---|
| Flight time | N/A |
| Altitude | 25600 |
| Route | NXD94D NXD W131 AKDIM A470 ENVEN ENVEN8X |
| Aircraft | A339/H-SADE1E2E3GHIJ3J5M1P2RWXY/LB2D1 |
Departure
| Time | 2026-04-30 11:22 |
|---|---|
| Airport | Shanghai Pudong International Airport (ZSPD) |
Arrival
| Time | N/A |
|---|---|
| Airport | Xiamen Gaoqi International Airport (ZSAM) |
| Time | Latitude | Longitude | Altitude | Speed | Heading |
|---|---|---|---|---|---|
| 2026-04-30 10:48 | 31.14608 | 121.79855 | 32 ft | 0 kts | 71° |
| 2026-04-30 10:54 | 31.14543 | 121.79879 | 32 ft | 0 kts | 71° |
| 2026-04-30 11:10 | 31.14543 | 121.79878 | 33 ft | 1 kts | 71° |
| 2026-04-30 11:10 | 31.14538 | 121.79861 | 33 ft | 2 kts | 71° |
| 2026-04-30 11:10 | 31.14533 | 121.79844 | 33 ft | 2 kts | 71° |
| 2026-04-30 11:11 | 31.14529 | 121.79828 | 33 ft | 2 kts | 83° |
| 2026-04-30 11:11 | 31.14529 | 121.79810 | 33 ft | 2 kts | 98° |
| 2026-04-30 11:11 | 31.14532 | 121.79793 | 33 ft | 2 kts | 112° |
| 2026-04-30 11:11 | 31.14539 | 121.79778 | 33 ft | 2 kts | 126° |
| 2026-04-30 11:12 | 31.14549 | 121.79766 | 33 ft | 2 kts | 140° |
| 2026-04-30 11:12 | 31.14560 | 121.79756 | 33 ft | 2 kts | 153° |
| 2026-04-30 11:12 | 31.14569 | 121.79752 | 33 ft | 0 kts | 162° |
| 2026-04-30 11:12 | 31.14573 | 121.79750 | 33 ft | 0 kts | 163° |
| 2026-04-30 11:15 | 31.14565 | 121.79753 | 33 ft | 3 kts | 163° |
| 2026-04-30 11:16 | 31.14528 | 121.79766 | 33 ft | 7 kts | 162° |
| 2026-04-30 11:16 | 31.14463 | 121.79775 | 33 ft | 11 kts | 196° |
| 2026-04-30 11:16 | 31.14416 | 121.79700 | 34 ft | 13 kts | 252° |
| 2026-04-30 11:16 | 31.14383 | 121.79591 | 35 ft | 15 kts | 251° |
| 2026-04-30 11:17 | 31.14343 | 121.79514 | 36 ft | 11 kts | 204° |
| 2026-04-30 11:17 | 31.14256 | 121.79523 | 36 ft | 14 kts | 162° |
| 2026-04-30 11:17 | 31.14154 | 121.79562 | 36 ft | 16 kts | 162° |
| 2026-04-30 11:17 | 31.14034 | 121.79607 | 36 ft | 19 kts | 162° |
| 2026-04-30 11:18 | 31.13899 | 121.79658 | 36 ft | 21 kts | 161° |
| 2026-04-30 11:18 | 31.13596 | 121.79771 | 36 ft | 24 kts | 162° |
| 2026-04-30 11:18 | 31.13432 | 121.79835 | 35 ft | 25 kts | 162° |
| 2026-04-30 11:19 | 31.13262 | 121.79899 | 35 ft | 24 kts | 162° |
| 2026-04-30 11:19 | 31.13102 | 121.79959 | 35 ft | 24 kts | 162° |
| 2026-04-30 11:19 | 31.13001 | 121.79997 | 36 ft | 9 kts | 162° |
| 2026-04-30 11:19 | 31.12953 | 121.79991 | 36 ft | 7 kts | 218° |
| 2026-04-30 11:20 | 31.12926 | 121.79932 | 36 ft | 1 kts | 252° |
| 2026-04-30 11:20 | 31.12926 | 121.79931 | 36 ft | 0 kts | 252° |
| 2026-04-30 11:20 | 31.12923 | 121.79919 | 36 ft | 4 kts | 252° |
| 2026-04-30 11:21 | 31.12907 | 121.79863 | 36 ft | 9 kts | 253° |
| 2026-04-30 11:21 | 31.12934 | 121.79802 | 35 ft | 9 kts | 336° |
| 2026-04-30 11:21 | 31.12959 | 121.79793 | 35 ft | 0 kts | 342° |
| 2026-04-30 11:21 | 31.12965 | 121.79791 | 35 ft | 5 kts | 342° |
| 2026-04-30 11:22 | 31.13199 | 121.79702 | 35 ft | 69 kts | 342° |
| 2026-04-30 11:22 | 31.13875 | 121.79447 | 36 ft | 129 kts | 342° |
| 2026-04-30 11:22 | 31.14887 | 121.79059 | 102 ft | 170 kts | 345° |
| 2026-04-30 11:22 | 31.16035 | 121.78647 | 647 ft | 172 kts | 345° |
| 2026-04-30 11:23 | 31.17154 | 121.78268 | 1348 ft | 169 kts | 345° |
| 2026-04-30 11:23 | 31.18265 | 121.77893 | 2077 ft | 164 kts | 341° |
| 2026-04-30 11:23 | 31.20589 | 121.76904 | 2743 ft | 193 kts | 339° |
| 2026-04-30 11:24 | 31.21907 | 121.76345 | 3048 ft | 211 kts | 340° |
| 2026-04-30 11:24 | 31.23349 | 121.75751 | 3381 ft | 228 kts | 340° |
| 2026-04-30 11:24 | 31.24877 | 121.75133 | 3841 ft | 240 kts | 340° |
| 2026-04-30 11:25 | 31.28049 | 121.73863 | 5263 ft | 241 kts | 340° |
| 2026-04-30 11:25 | 31.29631 | 121.73231 | 6012 ft | 240 kts | 340° |
| 2026-04-30 11:25 | 31.32706 | 121.71761 | 7353 ft | 241 kts | 320° |
| 2026-04-30 11:26 | 31.34192 | 121.68208 | 8514 ft | 262 kts | 275° |
| 2026-04-30 11:26 | 31.33950 | 121.66073 | 9285 ft | 267 kts | 264° |
| 2026-04-30 11:26 | 31.33598 | 121.63966 | 10018 ft | 267 kts | 264° |
| 2026-04-30 11:27 | 31.33242 | 121.61825 | 10640 ft | 274 kts | 264° |
| 2026-04-30 11:27 | 31.32879 | 121.59589 | 10994 ft | 292 kts | 264° |
| 2026-04-30 11:27 | 31.32487 | 121.57179 | 11273 ft | 309 kts | 264° |
| 2026-04-30 11:27 | 31.32078 | 121.54668 | 11629 ft | 323 kts | 264° |
| 2026-04-30 11:28 | 31.31211 | 121.49451 | 11868 ft | 326 kts | 263° |
| 2026-04-30 11:28 | 31.30781 | 121.46877 | 11868 ft | 325 kts | 263° |
| 2026-04-30 11:28 | 31.30344 | 121.44256 | 11871 ft | 324 kts | 264° |
| 2026-04-30 11:29 | 31.29913 | 121.41659 | 11871 ft | 325 kts | 263° |
| 2026-04-30 11:29 | 31.29486 | 121.39082 | 11873 ft | 325 kts | 264° |
| 2026-04-30 11:29 | 31.28331 | 121.33943 | 11871 ft | 334 kts | 248° |
| 2026-04-30 11:30 | 31.25136 | 121.29862 | 11882 ft | 350 kts | 226° |
| 2026-04-30 11:30 | 31.23233 | 121.28058 | 11878 ft | 349 kts | 225° |
| 2026-04-30 11:30 | 31.21351 | 121.26277 | 11879 ft | 349 kts | 225° |
| 2026-04-30 11:31 | 31.19458 | 121.24478 | 11888 ft | 349 kts | 226° |
| 2026-04-30 11:31 | 31.17586 | 121.22693 | 11877 ft | 349 kts | 226° |
| 2026-04-30 11:31 | 31.15696 | 121.20882 | 11872 ft | 349 kts | 226° |
| 2026-04-30 11:31 | 31.13817 | 121.19082 | 11875 ft | 348 kts | 226° |
| 2026-04-30 11:32 | 31.11932 | 121.17275 | 12080 ft | 355 kts | 225° |
| 2026-04-30 11:32 | 31.10030 | 121.15456 | 12889 ft | 357 kts | 226° |
| 2026-04-30 11:32 | 31.08193 | 121.13518 | 13704 ft | 351 kts | 236° |
| 2026-04-30 11:33 | 31.06029 | 121.08688 | 15250 ft | 335 kts | 259° |
| 2026-04-30 11:33 | 31.05380 | 121.06065 | 16004 ft | 336 kts | 260° |
| 2026-04-30 11:33 | 31.04746 | 121.03458 | 16775 ft | 337 kts | 260° |
| 2026-04-30 11:33 | 31.04113 | 121.00843 | 17442 ft | 340 kts | 261° |
| 2026-04-30 11:34 | 31.03460 | 120.98183 | 18166 ft | 341 kts | 260° |
| 2026-04-30 11:34 | 31.02809 | 120.95539 | 18874 ft | 343 kts | 261° |
| 2026-04-30 11:34 | 31.02148 | 120.92850 | 19521 ft | 346 kts | 260° |
| 2026-04-30 11:34 | 31.01487 | 120.90177 | 20159 ft | 348 kts | 260° |
| 2026-04-30 11:35 | 31.00815 | 120.87462 | 20805 ft | 349 kts | 260° |
| 2026-04-30 11:35 | 31.00138 | 120.84734 | 21363 ft | 353 kts | 260° |
| 2026-04-30 11:35 | 30.99462 | 120.82019 | 21969 ft | 353 kts | 259° |
| 2026-04-30 11:35 | 30.98768 | 120.79244 | 22527 ft | 356 kts | 260° |
| 2026-04-30 11:36 | 30.98077 | 120.76463 | 23080 ft | 358 kts | 259° |
| 2026-04-30 11:36 | 30.97383 | 120.73684 | 23627 ft | 359 kts | 259° |
| 2026-04-30 11:36 | 30.96683 | 120.70888 | 24132 ft | 361 kts | 259° |
| 2026-04-30 11:36 | 30.95972 | 120.68050 | 24596 ft | 364 kts | 259° |
| 2026-04-30 11:37 | 30.95264 | 120.65233 | 25074 ft | 366 kts | 259° |
| 2026-04-30 11:37 | 30.94554 | 120.62394 | 25506 ft | 367 kts | 259° |
| 2026-04-30 11:37 | 30.93828 | 120.59515 | 25673 ft | 369 kts | 259° |
| 2026-04-30 11:37 | 30.93111 | 120.56655 | 25668 ft | 366 kts | 259° |
| 2026-04-30 11:38 | 30.92392 | 120.53805 | 25688 ft | 366 kts | 259° |
| 2026-04-30 11:38 | 30.91674 | 120.50959 | 25673 ft | 367 kts | 260° |
| 2026-04-30 11:38 | 30.90949 | 120.48105 | 25685 ft | 368 kts | 258° |
| 2026-04-30 11:38 | 30.89902 | 120.45335 | 25678 ft | 378 kts | 249° |
| 2026-04-30 11:39 | 30.88398 | 120.42777 | 25684 ft | 392 kts | 239° |
| 2026-04-30 11:39 | 30.86440 | 120.40470 | 25684 ft | 417 kts | 230° |
| 2026-04-30 11:39 | 30.84043 | 120.38398 | 25674 ft | 434 kts | 226° |
| 2026-04-30 11:39 | 30.81575 | 120.36343 | 25657 ft | 439 kts | 225° |
| 2026-04-30 11:40 | 30.79083 | 120.34285 | 25675 ft | 438 kts | 225° |
| 2026-04-30 11:40 | 30.76580 | 120.32228 | 25677 ft | 440 kts | 225° |
| 2026-04-30 11:40 | 30.74078 | 120.30173 | 25674 ft | 439 kts | 225° |
| 2026-04-30 11:40 | 30.71581 | 120.28126 | 25688 ft | 440 kts | 225° |
| 2026-04-30 11:41 | 30.69062 | 120.26054 | 25679 ft | 438 kts | 225° |
| 2026-04-30 11:41 | 30.66598 | 120.24032 | 25668 ft | 440 kts | 225° |
| 2026-04-30 11:41 | 30.64072 | 120.21957 | 25672 ft | 438 kts | 225° |
| 2026-04-30 11:41 | 30.61578 | 120.19916 | 25670 ft | 438 kts | 225° |
| 2026-04-30 11:42 | 30.59078 | 120.17865 | 25680 ft | 440 kts | 225° |
| 2026-04-30 11:42 | 30.56580 | 120.15818 | 25666 ft | 440 kts | 225° |
| 2026-04-30 11:42 | 30.54080 | 120.13773 | 25680 ft | 440 kts | 225° |
| 2026-04-30 11:42 | 30.51574 | 120.11725 | 25679 ft | 440 kts | 225° |
| 2026-04-30 11:43 | 30.49103 | 120.09706 | 25680 ft | 438 kts | 225° |
| 2026-04-30 11:43 | 30.46569 | 120.07642 | 25685 ft | 440 kts | 225° |
| 2026-04-30 11:43 | 30.44041 | 120.05635 | 25662 ft | 443 kts | 223° |
| 2026-04-30 11:43 | 30.41391 | 120.03748 | 25678 ft | 447 kts | 220° |
| 2026-04-30 11:44 | 30.38692 | 120.01949 | 25666 ft | 448 kts | 220° |
| 2026-04-30 11:44 | 30.35988 | 120.00140 | 25673 ft | 446 kts | 220° |
| 2026-04-30 11:44 | 30.33298 | 119.98348 | 25672 ft | 444 kts | 220° |
| 2026-04-30 11:44 | 30.30602 | 119.96552 | 25675 ft | 446 kts | 220° |
| 2026-04-30 11:45 | 30.27907 | 119.94756 | 25682 ft | 448 kts | 220° |
| 2026-04-30 11:45 | 30.25170 | 119.92934 | 25664 ft | 448 kts | 220° |
| 2026-04-30 11:45 | 30.22461 | 119.91132 | 25662 ft | 448 kts | 220° |
| 2026-04-30 11:45 | 30.19757 | 119.89337 | 25664 ft | 447 kts | 220° |
| 2026-04-30 11:46 | 30.17075 | 119.87557 | 25676 ft | 448 kts | 220° |
| 2026-04-30 11:46 | 30.14334 | 119.85739 | 25677 ft | 448 kts | 220° |
| 2026-04-30 11:46 | 30.11626 | 119.83946 | 25660 ft | 448 kts | 220° |
| 2026-04-30 11:46 | 30.08941 | 119.82169 | 25681 ft | 449 kts | 220° |
| 2026-04-30 11:47 | 30.06202 | 119.80356 | 25663 ft | 449 kts | 220° |
| 2026-04-30 11:47 | 30.03519 | 119.78571 | 25670 ft | 446 kts | 220° |
| 2026-04-30 11:47 | 30.00838 | 119.76770 | 25668 ft | 445 kts | 220° |
| 2026-04-30 11:47 | 29.98129 | 119.74944 | 25676 ft | 446 kts | 221° |
| 2026-04-30 11:48 | 29.95454 | 119.73141 | 25658 ft | 445 kts | 220° |
| 2026-04-30 11:48 | 29.92798 | 119.71354 | 25679 ft | 446 kts | 220° |
| 2026-04-30 11:48 | 29.90091 | 119.69537 | 25687 ft | 447 kts | 220° |
| 2026-04-30 11:48 | 29.87275 | 119.67928 | 25656 ft | 459 kts | 212° |
| 2026-04-30 11:49 | 29.84151 | 119.66788 | 25670 ft | 472 kts | 204° |
| 2026-04-30 11:49 | 29.80847 | 119.66183 | 25651 ft | 486 kts | 195° |
| 2026-04-30 11:49 | 29.77481 | 119.65969 | 25684 ft | 489 kts | 193° |
| 2026-04-30 11:49 | 29.74042 | 119.65802 | 25679 ft | 487 kts | 193° |
| 2026-04-30 11:50 | 29.70634 | 119.65595 | 25672 ft | 489 kts | 193° |
| 2026-04-30 11:50 | 29.67244 | 119.65367 | 25678 ft | 487 kts | 194° |
| 2026-04-30 11:50 | 29.63839 | 119.65128 | 25673 ft | 488 kts | 193° |
| 2026-04-30 11:50 | 29.60440 | 119.64989 | 25684 ft | 492 kts | 191° |
| 2026-04-30 11:51 | 29.57026 | 119.64899 | 25673 ft | 491 kts | 191° |
| 2026-04-30 11:51 | 29.53613 | 119.64802 | 25664 ft | 489 kts | 192° |
| 2026-04-30 11:51 | 29.50213 | 119.64617 | 25665 ft | 489 kts | 193° |
| 2026-04-30 11:51 | 29.46797 | 119.64396 | 25676 ft | 488 kts | 193° |
| 2026-04-30 11:52 | 29.43395 | 119.64168 | 25672 ft | 490 kts | 193° |
| 2026-04-30 11:52 | 29.40010 | 119.63947 | 25677 ft | 489 kts | 193° |
| 2026-04-30 11:52 | 29.36579 | 119.63729 | 25672 ft | 489 kts | 193° |
| 2026-04-30 11:52 | 29.33195 | 119.63517 | 25668 ft | 489 kts | 193° |
| 2026-04-30 11:53 | 29.29796 | 119.63309 | 25682 ft | 488 kts | 193° |
| 2026-04-30 11:53 | 29.26397 | 119.63103 | 25667 ft | 488 kts | 193° |
| 2026-04-30 11:53 | 29.22979 | 119.62895 | 25670 ft | 487 kts | 193° |
| 2026-04-30 11:53 | 29.19580 | 119.62688 | 25684 ft | 488 kts | 193° |
| 2026-04-30 11:54 | 29.16215 | 119.62483 | 25680 ft | 489 kts | 193° |
| 2026-04-30 11:54 | 29.12795 | 119.62275 | 25678 ft | 489 kts | 193° |
| 2026-04-30 11:54 | 29.09369 | 119.62067 | 25660 ft | 489 kts | 193° |
| 2026-04-30 11:54 | 29.05961 | 119.61857 | 25667 ft | 489 kts | 193° |
| 2026-04-30 11:55 | 29.02567 | 119.61643 | 25678 ft | 489 kts | 193° |
| 2026-04-30 11:55 | 28.99141 | 119.61429 | 25688 ft | 490 kts | 193° |
| 2026-04-30 11:55 | 28.95757 | 119.61216 | 25680 ft | 488 kts | 193° |
| 2026-04-30 11:55 | 28.92382 | 119.61006 | 25685 ft | 488 kts | 193° |
| 2026-04-30 11:56 | 28.88957 | 119.60793 | 25681 ft | 488 kts | 193° |
| 2026-04-30 11:56 | 28.85585 | 119.60582 | 25689 ft | 489 kts | 193° |
| 2026-04-30 11:56 | 28.82159 | 119.60370 | 25696 ft | 489 kts | 193° |
| 2026-04-30 11:56 | 28.78762 | 119.60159 | 25694 ft | 491 kts | 193° |
| 2026-04-30 11:57 | 28.75329 | 119.59946 | 25696 ft | 490 kts | 193° |
| 2026-04-30 11:57 | 28.71919 | 119.59734 | 25688 ft | 491 kts | 193° |
| 2026-04-30 11:57 | 28.68503 | 119.59523 | 25693 ft | 492 kts | 193° |
| 2026-04-30 11:57 | 28.65096 | 119.59312 | 25698 ft | 492 kts | 192° |
| 2026-04-30 11:58 | 28.61689 | 119.59104 | 25709 ft | 492 kts | 192° |
| 2026-04-30 11:58 | 28.58223 | 119.58893 | 25703 ft | 493 kts | 193° |
| 2026-04-30 11:58 | 28.54788 | 119.58682 | 25686 ft | 492 kts | 192° |
| 2026-04-30 11:58 | 28.51368 | 119.58472 | 25693 ft | 492 kts | 192° |
| 2026-04-30 11:59 | 28.47979 | 119.58263 | 25700 ft | 494 kts | 192° |
| 2026-04-30 11:59 | 28.44526 | 119.58051 | 25696 ft | 493 kts | 192° |
| 2026-04-30 11:59 | 28.41108 | 119.57856 | 25698 ft | 493 kts | 192° |
| 2026-04-30 11:59 | 28.37661 | 119.57664 | 25693 ft | 495 kts | 192° |
| 2026-04-30 12:00 | 28.34226 | 119.57476 | 25703 ft | 495 kts | 192° |
| 2026-04-30 12:00 | 28.30783 | 119.57290 | 25702 ft | 494 kts | 192° |
| 2026-04-30 12:00 | 28.27336 | 119.57102 | 25715 ft | 493 kts | 192° |
| 2026-04-30 12:00 | 28.23879 | 119.56912 | 25701 ft | 495 kts | 192° |
| 2026-04-30 12:01 | 28.20421 | 119.56719 | 25702 ft | 496 kts | 192° |
| 2026-04-30 12:01 | 28.16987 | 119.56530 | 25709 ft | 497 kts | 192° |
| 2026-04-30 12:01 | 28.13493 | 119.56338 | 25702 ft | 496 kts | 192° |
| 2026-04-30 12:01 | 28.10042 | 119.56162 | 25706 ft | 498 kts | 191° |
| 2026-04-30 12:02 | 28.06568 | 119.56094 | 25711 ft | 498 kts | 190° |
| 2026-04-30 12:02 | 28.03108 | 119.56039 | 25711 ft | 498 kts | 190° |
| 2026-04-30 12:02 | 27.99607 | 119.55987 | 25715 ft | 499 kts | 190° |
| 2026-04-30 12:02 | 27.96131 | 119.55937 | 25719 ft | 498 kts | 190° |
| 2026-04-30 12:03 | 27.92645 | 119.55885 | 25721 ft | 498 kts | 189° |
| 2026-04-30 12:03 | 27.85717 | 119.55822 | 25719 ft | 497 kts | 189° |
| 2026-04-30 12:03 | 27.82277 | 119.55805 | 25720 ft | 496 kts | 189° |
| 2026-04-30 12:04 | 27.78797 | 119.55788 | 25719 ft | 496 kts | 189° |
| 2026-04-30 12:04 | 27.75325 | 119.55769 | 25719 ft | 496 kts | 189° |
| 2026-04-30 12:04 | 27.71884 | 119.55751 | 25717 ft | 495 kts | 189° |
| 2026-04-30 12:04 | 27.68441 | 119.55731 | 25717 ft | 494 kts | 189° |
| 2026-04-30 12:05 | 27.64986 | 119.55714 | 25720 ft | 494 kts | 189° |
| 2026-04-30 12:05 | 27.61560 | 119.55695 | 25720 ft | 494 kts | 189° |
| 2026-04-30 12:05 | 27.58121 | 119.55677 | 25722 ft | 493 kts | 189° |
| 2026-04-30 12:05 | 27.54687 | 119.55658 | 25723 ft | 493 kts | 189° |
| 2026-04-30 12:06 | 27.51238 | 119.55637 | 25722 ft | 493 kts | 188° |
| 2026-04-30 12:06 | 27.47771 | 119.55620 | 25723 ft | 493 kts | 188° |
| 2026-04-30 12:06 | 27.44365 | 119.55602 | 25721 ft | 493 kts | 188° |
| 2026-04-30 12:06 | 27.40910 | 119.55585 | 25718 ft | 492 kts | 188° |
| 2026-04-30 12:07 | 27.37493 | 119.55579 | 25715 ft | 493 kts | 188° |
| 2026-04-30 12:07 | 27.34048 | 119.55582 | 25715 ft | 493 kts | 188° |
| 2026-04-30 12:07 | 27.30601 | 119.55582 | 25714 ft | 493 kts | 188° |
| 2026-04-30 12:07 | 27.27204 | 119.55576 | 25715 ft | 491 kts | 188° |
| 2026-04-30 12:08 | 27.23765 | 119.55564 | 25717 ft | 490 kts | 188° |
| 2026-04-30 12:08 | 27.20372 | 119.55540 | 25716 ft | 492 kts | 188° |
| 2026-04-30 12:08 | 27.16926 | 119.55512 | 25714 ft | 491 kts | 188° |
| 2026-04-30 12:08 | 27.13493 | 119.55484 | 25713 ft | 490 kts | 188° |
| 2026-04-30 12:09 | 27.10110 | 119.55461 | 25713 ft | 489 kts | 188° |
| 2026-04-30 12:09 | 27.06658 | 119.55437 | 25712 ft | 488 kts | 188° |
| 2026-04-30 12:09 | 27.03273 | 119.55415 | 25714 ft | 489 kts | 188° |
| 2026-04-30 12:09 | 26.99827 | 119.55391 | 25714 ft | 489 kts | 187° |
| 2026-04-30 12:10 | 26.96423 | 119.55369 | 25714 ft | 489 kts | 187° |
| 2026-04-30 12:10 | 26.93040 | 119.55347 | 25714 ft | 489 kts | 187° |
| 2026-04-30 12:10 | 26.89602 | 119.55326 | 25712 ft | 489 kts | 187° |
| 2026-04-30 12:10 | 26.86210 | 119.55306 | 25706 ft | 488 kts | 187° |
| 2026-04-30 12:11 | 26.82805 | 119.55286 | 25705 ft | 488 kts | 187° |
| 2026-04-30 12:11 | 26.79426 | 119.55264 | 25704 ft | 488 kts | 187° |
| 2026-04-30 12:11 | 26.76016 | 119.55241 | 25704 ft | 488 kts | 187° |
| 2026-04-30 12:11 | 26.72589 | 119.55221 | 25705 ft | 488 kts | 187° |
| 2026-04-30 12:12 | 26.69174 | 119.55199 | 25705 ft | 489 kts | 187° |
| 2026-04-30 12:12 | 26.65791 | 119.55178 | 25706 ft | 489 kts | 187° |
| 2026-04-30 12:12 | 26.62357 | 119.55157 | 25706 ft | 488 kts | 187° |
| 2026-04-30 12:12 | 26.58955 | 119.55136 | 25704 ft | 488 kts | 187° |
| 2026-04-30 12:13 | 26.55581 | 119.55116 | 25703 ft | 488 kts | 187° |
| 2026-04-30 12:13 | 26.52179 | 119.55096 | 25703 ft | 487 kts | 187° |
| 2026-04-30 12:13 | 26.48778 | 119.55076 | 25700 ft | 486 kts | 187° |
| 2026-04-30 12:13 | 26.45398 | 119.55055 | 25698 ft | 487 kts | 187° |
| 2026-04-30 12:14 | 26.41990 | 119.55035 | 25699 ft | 487 kts | 187° |
| 2026-04-30 12:14 | 26.38613 | 119.55014 | 25699 ft | 487 kts | 187° |
| 2026-04-30 12:14 | 26.35207 | 119.54981 | 25699 ft | 487 kts | 187° |
| 2026-04-30 12:14 | 26.31815 | 119.54939 | 25699 ft | 487 kts | 187° |
| 2026-04-30 12:15 | 26.28414 | 119.54896 | 25699 ft | 487 kts | 187° |
| 2026-04-30 12:15 | 26.25054 | 119.54775 | 25697 ft | 483 kts | 191° |
| 2026-04-30 12:15 | 26.21725 | 119.54339 | 25695 ft | 478 kts | 196° |
| 2026-04-30 12:15 | 26.18487 | 119.53590 | 25694 ft | 473 kts | 201° |
| 2026-04-30 12:16 | 26.15324 | 119.52576 | 25698 ft | 471 kts | 203° |
| 2026-04-30 12:16 | 26.12157 | 119.51498 | 25693 ft | 470 kts | 204° |
| 2026-04-30 12:16 | 26.09059 | 119.50433 | 25690 ft | 470 kts | 204° |
| 2026-04-30 12:16 | 26.05912 | 119.49349 | 25687 ft | 471 kts | 204° |
| 2026-04-30 12:17 | 25.99614 | 119.47192 | 25687 ft | 471 kts | 203° |
| 2026-04-30 12:17 | 25.96510 | 119.46135 | 25690 ft | 471 kts | 203° |
| 2026-04-30 12:17 | 25.93342 | 119.45058 | 25695 ft | 472 kts | 203° |
| 2026-04-30 12:18 | 25.90192 | 119.43986 | 25698 ft | 471 kts | 203° |
| 2026-04-30 12:18 | 25.87074 | 119.42930 | 25700 ft | 471 kts | 203° |
| 2026-04-30 12:18 | 25.83899 | 119.41852 | 25700 ft | 472 kts | 203° |
| 2026-04-30 12:18 | 25.80756 | 119.40784 | 25699 ft | 472 kts | 203° |
| 2026-04-30 12:19 | 25.77631 | 119.39671 | 25694 ft | 468 kts | 207° |
| 2026-04-30 12:19 | 25.74743 | 119.38117 | 25694 ft | 461 kts | 216° |
| 2026-04-30 12:19 | 25.72135 | 119.36090 | 25693 ft | 455 kts | 225° |
| 2026-04-30 12:19 | 25.69848 | 119.33674 | 25698 ft | 451 kts | 231° |
| 2026-04-30 12:20 | 25.67677 | 119.31127 | 25694 ft | 451 kts | 231° |
| 2026-04-30 12:20 | 25.65531 | 119.28590 | 25692 ft | 451 kts | 231° |
| 2026-04-30 12:20 | 25.63408 | 119.26078 | 25692 ft | 451 kts | 231° |
| 2026-04-30 12:20 | 25.61256 | 119.23540 | 25690 ft | 452 kts | 231° |
| 2026-04-30 12:21 | 25.59051 | 119.20944 | 25688 ft | 452 kts | 231° |
| 2026-04-30 12:21 | 25.56904 | 119.18423 | 25688 ft | 452 kts | 231° |
| 2026-04-30 12:21 | 25.54753 | 119.15898 | 25688 ft | 452 kts | 231° |
| 2026-04-30 12:21 | 25.52598 | 119.13371 | 25699 ft | 450 kts | 231° |
| 2026-04-30 12:22 | 25.50462 | 119.10877 | 25488 ft | 438 kts | 231° |
| 2026-04-30 12:22 | 25.48400 | 119.08467 | 25243 ft | 428 kts | 231° |
| 2026-04-30 12:22 | 25.46370 | 119.06097 | 24994 ft | 418 kts | 231° |
| 2026-04-30 12:22 | 25.44397 | 119.03792 | 24747 ft | 411 kts | 231° |
| 2026-04-30 12:23 | 25.42426 | 119.01482 | 24500 ft | 412 kts | 231° |
| 2026-04-30 12:23 | 25.40451 | 118.99172 | 24250 ft | 412 kts | 231° |
| 2026-04-30 12:23 | 25.38489 | 118.96880 | 24002 ft | 411 kts | 231° |
| 2026-04-30 12:23 | 25.36536 | 118.94603 | 23764 ft | 410 kts | 231° |
| 2026-04-30 12:24 | 25.34569 | 118.92309 | 23526 ft | 409 kts | 231° |
| 2026-04-30 12:24 | 25.32640 | 118.90020 | 23289 ft | 408 kts | 232° |
| 2026-04-30 12:24 | 25.30719 | 118.87691 | 23049 ft | 407 kts | 232° |
| 2026-04-30 12:24 | 25.28827 | 118.85391 | 22812 ft | 406 kts | 232° |
| 2026-04-30 12:25 | 25.26918 | 118.83074 | 22572 ft | 405 kts | 232° |
| 2026-04-30 12:25 | 25.25036 | 118.80794 | 22339 ft | 404 kts | 232° |
| 2026-04-30 12:25 | 25.23127 | 118.78482 | 22106 ft | 403 kts | 232° |
| 2026-04-30 12:25 | 25.21249 | 118.76211 | 21880 ft | 402 kts | 232° |
| 2026-04-30 12:26 | 25.19378 | 118.73949 | 21599 ft | 400 kts | 232° |
| 2026-04-30 12:26 | 25.17480 | 118.71657 | 21253 ft | 398 kts | 232° |
| 2026-04-30 12:26 | 25.15626 | 118.69420 | 20857 ft | 396 kts | 232° |
| 2026-04-30 12:26 | 25.13755 | 118.67165 | 20457 ft | 393 kts | 232° |
| 2026-04-30 12:27 | 25.11918 | 118.64951 | 20065 ft | 389 kts | 232° |
| 2026-04-30 12:27 | 25.10119 | 118.62784 | 19655 ft | 387 kts | 232° |
| 2026-04-30 12:27 | 25.08273 | 118.60590 | 19244 ft | 384 kts | 231° |
| 2026-04-30 12:27 | 25.06448 | 118.58485 | 18837 ft | 382 kts | 230° |
| 2026-04-30 12:28 | 25.04592 | 118.56363 | 18427 ft | 380 kts | 230° |
| 2026-04-30 12:28 | 25.02765 | 118.54270 | 18017 ft | 377 kts | 230° |
| 2026-04-30 12:28 | 25.00965 | 118.52209 | 17611 ft | 375 kts | 230° |
| 2026-04-30 12:28 | 24.99165 | 118.50144 | 17214 ft | 372 kts | 230° |
| 2026-04-30 12:29 | 24.97377 | 118.48093 | 16817 ft | 370 kts | 230° |
| 2026-04-30 12:29 | 24.95605 | 118.46062 | 16660 ft | 362 kts | 230° |
| 2026-04-30 12:29 | 24.93859 | 118.44063 | 16576 ft | 359 kts | 230° |
| 2026-04-30 12:29 | 24.92132 | 118.42082 | 16486 ft | 356 kts | 230° |
| 2026-04-30 12:30 | 24.90423 | 118.40124 | 16400 ft | 354 kts | 230° |
| 2026-04-30 12:30 | 24.88707 | 118.38158 | 16337 ft | 353 kts | 230° |
| 2026-04-30 12:30 | 24.87019 | 118.36224 | 16280 ft | 352 kts | 230° |
| 2026-04-30 12:30 | 24.85313 | 118.34265 | 16236 ft | 350 kts | 231° |
| 2026-04-30 12:31 | 24.84004 | 118.32123 | 16060 ft | 335 kts | 252° |
| 2026-04-30 12:31 | 24.83738 | 118.29642 | 15855 ft | 324 kts | 278° |
| 2026-04-30 12:31 | 24.84564 | 118.27383 | 15566 ft | 322 kts | 306° |
| 2026-04-30 12:31 | 24.86248 | 118.25771 | 15311 ft | 322 kts | 323° |
| 2026-04-30 12:32 | 24.87995 | 118.24263 | 15077 ft | 313 kts | 309° |
| 2026-04-30 12:32 | 24.89222 | 118.22336 | 14849 ft | 306 kts | 298° |
| 2026-04-30 12:32 | 24.90270 | 118.20297 | 14628 ft | 301 kts | 297° |
| 2026-04-30 12:32 | 24.91240 | 118.18284 | 14406 ft | 297 kts | 296° |
| 2026-04-30 12:33 | 24.92113 | 118.16222 | 14183 ft | 292 kts | 289° |
| 2026-04-30 12:33 | 24.92712 | 118.14113 | 13974 ft | 288 kts | 284° |
| 2026-04-30 12:33 | 24.93204 | 118.11998 | 13767 ft | 284 kts | 283° |
| 2026-04-30 12:33 | 24.93682 | 118.09885 | 13571 ft | 280 kts | 284° |
| 2026-04-30 12:34 | 24.94116 | 118.07809 | 13371 ft | 276 kts | 279° |
| 2026-04-30 12:34 | 24.94319 | 118.05724 | 13175 ft | 272 kts | 273° |
| 2026-04-30 12:34 | 24.94376 | 118.03670 | 12984 ft | 268 kts | 272° |
| 2026-04-30 12:34 | 24.94397 | 118.01617 | 12792 ft | 265 kts | 266° |
| 2026-04-30 12:35 | 24.93832 | 117.99730 | 12551 ft | 267 kts | 234° |
| 2026-04-30 12:35 | 24.92376 | 117.98480 | 12335 ft | 272 kts | 203° |
| 2026-04-30 12:35 | 24.90486 | 117.98229 | 12124 ft | 276 kts | 178° |
| 2026-04-30 12:35 | 24.88589 | 117.98444 | 11959 ft | 272 kts | 178° |
| 2026-04-30 12:36 | 24.86703 | 117.98643 | 11758 ft | 270 kts | 178° |
| 2026-04-30 12:36 | 24.84819 | 117.98829 | 11531 ft | 269 kts | 178° |
| 2026-04-30 12:36 | 24.82969 | 117.99007 | 11298 ft | 268 kts | 178° |
| 2026-04-30 12:36 | 24.81116 | 117.99183 | 11067 ft | 266 kts | 178° |
| 2026-04-30 12:37 | 24.79245 | 117.99358 | 10841 ft | 265 kts | 178° |
| 2026-04-30 12:37 | 24.77405 | 117.99531 | 10608 ft | 264 kts | 178° |
| 2026-04-30 12:37 | 24.75569 | 117.99704 | 10373 ft | 264 kts | 178° |
| 2026-04-30 12:37 | 24.73738 | 117.99876 | 10136 ft | 263 kts | 178° |
| 2026-04-30 12:38 | 24.71911 | 118.00047 | 9895 ft | 263 kts | 178° |
| 2026-04-30 12:38 | 24.70087 | 118.00218 | 9670 ft | 261 kts | 178° |
| 2026-04-30 12:38 | 24.68294 | 118.00386 | 9462 ft | 260 kts | 178° |
| 2026-04-30 12:38 | 24.66491 | 118.00554 | 9251 ft | 258 kts | 178° |
| 2026-04-30 12:39 | 24.64680 | 118.00724 | 9041 ft | 257 kts | 178° |
| 2026-04-30 12:39 | 24.62906 | 118.00890 | 8825 ft | 256 kts | 178° |
| 2026-04-30 12:39 | 24.61130 | 118.01057 | 8602 ft | 255 kts | 178° |
| 2026-04-30 12:39 | 24.59350 | 118.01221 | 8378 ft | 254 kts | 178° |
| 2026-04-30 12:40 | 24.57596 | 118.01379 | 8186 ft | 252 kts | 181° |
| 2026-04-30 12:40 | 24.55924 | 118.01019 | 7969 ft | 243 kts | 215° |
| 2026-04-30 12:40 | 24.54682 | 117.99796 | 7778 ft | 238 kts | 231° |
| 2026-04-30 12:40 | 24.53637 | 117.98402 | 7572 ft | 236 kts | 233° |
| 2026-04-30 12:41 | 24.52603 | 117.97017 | 7358 ft | 236 kts | 232° |
| 2026-04-30 12:41 | 24.51550 | 117.95650 | 7184 ft | 235 kts | 233° |
| 2026-04-30 12:41 | 24.50456 | 117.94302 | 6936 ft | 236 kts | 231° |
| 2026-04-30 12:41 | 24.49348 | 117.92956 | 6665 ft | 236 kts | 230° |
| 2026-04-30 12:42 | 24.48259 | 117.91633 | 6402 ft | 231 kts | 229° |
| 2026-04-30 12:42 | 24.47180 | 117.90325 | 6168 ft | 232 kts | 228° |
| 2026-04-30 12:42 | 24.46071 | 117.89024 | 5934 ft | 234 kts | 228° |
| 2026-04-30 12:42 | 24.44962 | 117.87714 | 5690 ft | 234 kts | 226° |
| 2026-04-30 12:43 | 24.43582 | 117.86809 | 5427 ft | 238 kts | 189° |
| 2026-04-30 12:43 | 24.41950 | 117.87063 | 5180 ft | 240 kts | 149° |
| 2026-04-30 12:43 | 24.40846 | 117.88381 | 4940 ft | 240 kts | 109° |
| 2026-04-30 12:43 | 24.40576 | 117.90164 | 4706 ft | 238 kts | 90° |
| 2026-04-30 12:44 | 24.40527 | 117.91976 | 4462 ft | 239 kts | 90° |
| 2026-04-30 12:44 | 24.40693 | 117.93777 | 4208 ft | 238 kts | 66° |
| 2026-04-30 12:44 | 24.41559 | 117.95293 | 3972 ft | 236 kts | 49° |
| 2026-04-30 12:44 | 24.42642 | 117.96658 | 3730 ft | 237 kts | 47° |
| 2026-04-30 12:45 | 24.43736 | 117.98029 | 3483 ft | 239 kts | 48° |
| 2026-04-30 12:45 | 24.44816 | 117.99442 | 3237 ft | 240 kts | 49° |
| 2026-04-30 12:45 | 24.45865 | 118.00859 | 2993 ft | 240 kts | 50° |
| 2026-04-30 12:45 | 24.46904 | 118.02286 | 2749 ft | 241 kts | 50° |
| 2026-04-30 12:46 | 24.47956 | 118.03744 | 2502 ft | 241 kts | 51° |
| 2026-04-30 12:46 | 24.48993 | 118.05186 | 2295 ft | 240 kts | 51° |
| 2026-04-30 12:46 | 24.50007 | 118.06599 | 2258 ft | 231 kts | 51° |
| 2026-04-30 12:46 | 24.50976 | 118.07951 | 2255 ft | 222 kts | 51° |
| 2026-04-30 12:47 | 24.51914 | 118.09259 | 2253 ft | 212 kts | 51° |
| 2026-04-30 12:47 | 24.52836 | 118.10548 | 2257 ft | 213 kts | 51° |
| 2026-04-30 12:47 | 24.53748 | 118.11817 | 2258 ft | 213 kts | 51° |
| 2026-04-30 12:47 | 24.54681 | 118.13092 | 2257 ft | 212 kts | 51° |
| 2026-04-30 12:48 | 24.55603 | 118.14344 | 2258 ft | 212 kts | 51° |
| 2026-04-30 12:48 | 24.56542 | 118.15615 | 2256 ft | 212 kts | 50° |
| 2026-04-30 12:48 | 24.57469 | 118.16871 | 2256 ft | 213 kts | 50° |
| 2026-04-30 12:48 | 24.58399 | 118.18134 | 2258 ft | 214 kts | 51° |
| 2026-04-30 12:49 | 24.59336 | 118.19405 | 2257 ft | 213 kts | 50° |
| 2026-04-30 12:49 | 24.60277 | 118.20686 | 2258 ft | 213 kts | 50° |
| 2026-04-30 12:49 | 24.61203 | 118.21944 | 2258 ft | 214 kts | 50° |
| 2026-04-30 12:49 | 24.62147 | 118.23231 | 2258 ft | 214 kts | 50° |
| 2026-04-30 12:50 | 24.63076 | 118.24498 | 2257 ft | 213 kts | 50° |
| 2026-04-30 12:50 | 24.63999 | 118.25755 | 2261 ft | 213 kts | 50° |
| 2026-04-30 12:50 | 24.64940 | 118.27034 | 2261 ft | 213 kts | 50° |
| 2026-04-30 12:50 | 24.65871 | 118.28301 | 2262 ft | 213 kts | 50° |
| 2026-04-30 12:51 | 24.66802 | 118.29564 | 2261 ft | 212 kts | 50° |
| 2026-04-30 12:51 | 24.67724 | 118.30819 | 2261 ft | 212 kts | 50° |
| 2026-04-30 12:51 | 24.68663 | 118.32096 | 2260 ft | 212 kts | 50° |
| 2026-04-30 12:51 | 24.69586 | 118.33354 | 2259 ft | 212 kts | 50° |
| 2026-04-30 12:52 | 24.70513 | 118.34620 | 2261 ft | 212 kts | 50° |
| 2026-04-30 12:52 | 24.71353 | 118.35941 | 2252 ft | 213 kts | 69° |
| 2026-04-30 12:52 | 24.71624 | 118.37550 | 2257 ft | 212 kts | 71° |
| 2026-04-30 12:52 | 24.72367 | 118.38860 | 2249 ft | 197 kts | 43° |
| 2026-04-30 12:53 | 24.73097 | 118.40042 | 2282 ft | 185 kts | 83° |
| 2026-04-30 12:53 | 24.72720 | 118.41352 | 1861 ft | 200 kts | 143° |
| 2026-04-30 12:53 | 24.71425 | 118.41625 | 1891 ft | 185 kts | 199° |
| 2026-04-30 12:53 | 24.70483 | 118.40792 | 2344 ft | 167 kts | 240° |